Arkville, New York
Current Conditions -  °F | °C
As of 11:15 AM on Saturday 25 Oct 2014 (Local Time) from KMSV Reporting Station
Overcast Overcast  
Wind Chill: 44°   Ceiling: 4600
Heat Index: 48°   Visibility: 10mi
Dew Point: 39°   Wind: 9mph
Humidity: 71%   Direction: 290°WNW
Pressure: 29.83"   Gusts: NA
Location:  42.15°N, 74.62°W
Report Text: KMSV 251515Z AUTO 29008KT 10SM BKN046 OVC050 09/04 A2983 RMK AO1
Loading
Personal Weather Stations






























Interactive Weather Map
Tropical Storm Tracking
New forecast layout! Learn more

10-Day Weather Forecast

Advertisements
Track Severe Weather on mobile